Terminal Aerodrome Forecast
Issued by NWS

Home | Current Version | Previous Version | Graphics & Text | Print | Product List | Glossary On
Versions: 1 2 3 4 5 6 7 8 9 10 11 12
000
FTUS45 KGGW 221120
TAFOLF
TAF
KOLF 221120Z 2212/2312 27007KT P6SM FEW190
     FM221900 30015G24KT P6SM SKC
     FM230300 01007KT P6SM SKC
     FM230500 05006KT P6SM SKC=

USA.gov is the U.S. government's official web portal to all federal, state and local government web resources and services.